Confluence, PA

7:44 PM EDT on August 03, 2015 (GMT -0400)
KPACONFL2 | | Change Station
CLOSE
Current Station
Personal Weather Station
Location: Confluence, PA
Elevation: 1336 ft
Nearby Weather Stations

Elev 1336 ft 39.81 °N, 79.36 °W | Updated 4 seconds ago

Partly Cloudy
Partly Cloudy
77.3 °F
Feels Like 79 °F
N
0.0
Wind Variable Wind from South
Gusts 2.0 mph

Today
High -- | Low -- °F
--% Chance of Precip.
Yesterday
High -- | Low -- °F
Precip. -- in
6:17 AM 8:28 PM
Waning Gibbous, 83% visible
Pressure 29.96 in
Visibility 10.0 miles
Clouds Clear
Heat Index 79 °F
Dew Point 69 °F
Humidity 75%
Rainfall 0.00 in
Snow Depth Not available.
UV 0 out of 12
Pollen 6.40 out of 12
Air Quality Not available.
Flu Activity Not available.
METAR K2G4 032330Z AUTO 22005KT 10SM CLR 22/22 A2996 RMK AO1

More Conditions Fewer Conditions

Pressure 29.96 in
Visibility 10.0 miles
Clouds Clear
Heat Index 79 °F
Dew Point 69 °F
Humidity 75%
Rainfall 0.00 in
Snow Depth Not available.
UV 0 out of 12
Pollen 6.40 out of 12
Air Quality Not available.
Flu Activity Not available.
METAR K2G4 032330Z AUTO 22005KT 10SM CLR 22/22 A2996 RMK AO1

More Conditions Fewer Conditions

10-Day Weather Forecast

×

Almanac

Astronomy

Aug. 03, 2015 Rise Set
Actual Time
Civil Twilight
Nautical Twilight
Astronomical Twilight
Moon
Length of Visible Light
Length of Day
Tomorrow will be .
, % of the Moon is Illuminated

Today's Extremes

State Highs State Lows

Community

WunderPhotos

Upload Photos

1,843,791 photos uploaded!

WunderBlogs® & News

Nearby

Air Quality

  Air Quality AQ Index Pollutant
Not available.

Snow Depth

Station Depth Elevation

Earthquake Activity

City Distance Mag. Time & Date
Minimum magnitude displayed is 2.5.

Coastal Water Temperatures

Place Temperature

Stations

Nearby Weather Stations

Station Location Temp. Windchill Dew Point Humidity Wind Precip. Elev Updated Type
                   
Severe Thunderstorm Warning
Statement as of 7:32 PM EDT on August 03, 2015

... A Severe Thunderstorm Warning remains in effect until 815 PM EDT
for southern Somerset County...

At 730 PM EDT... Doppler radar indicated a severe thunderstorm capable
of producing half dollar size hail and damaging winds in excess of 60
mph. This storm was located near New Centerville... moving southeast
at 35 mph.

The storm has shown a weakening trend but is still capable of
causing damaging winds and large hail.

Locations impacted include...
Somerset... Berlin... Meyersdale... Mount Davis... New Centerville...
Ursina... Addison... Callimont... Casselman... confluence... Finzel...
Garrett... Rockwood... Salisbury... Seven Springs and Wellersburg.

Lat... Lon 3991 7939 4008 7920 3993 7876 3978 7878
      3973 7881 3972 7881 3972 7938 3974 7941
      3977 7938 3978 7940 3979 7935 3980 7937
      3983 7938 3985 7942 3990 7940
time... Mot... loc 2330z 302deg 48kt 3997 7917


La corte